Aérodrome :
LOGIN :

S'inscrire | Disclaimer

   EN    FR    IT 

 










Légende :    VFR   VFR Marginal   IFR   IFR Intensif   IFR Très Intensif
Visi : 
Plafond : 
>= 8 km
>= 3000ft
5 à 8 km
1000 à 3000 ft
1500m à 5 km
500 à 1000 ft
800 à 1500m
200 à 500 ft
< 800m
< 200 ft
Symboles :   Orages  Brouillard  Fortes neiges  Fortes précipitations  Vent > 20 kt
SIGMETs :   Divers  Orages  Givrage  Turbulence  Onde Orograph.  Cendres Volcan.






- Altitude de l'aérodrome : 870 ft
- Code IATA : ETZ


LFJL - Metz Nancy Lorraine

DERNIER METAR :
  • 071330Z AUTO 25009KT 9999 BKN016 BKN022 BKN027 09/07 Q1018 TEMPO BKN008

METARs EXPIRÉS :
  • 071300Z AUTO 23012KT 9999 BKN017 OVC026 09/07 Q1017 TEMPO BKN008
  • 071230Z AUTO 23010KT 9999 BKN016 OVC052 09/07 Q1017 TEMPO BKN008
  • 071200Z AUTO 24009KT 9999 BKN016 BKN031 OVC046 09/08 Q1017 TEMPO BKN008
  • 071130Z AUTO 24012KT 9999 FEW014 SCT019 OVC052 09/07 Q1017 TEMPO BKN008
  • 071100Z AUTO 25010KT 9999 BKN012 OVC054 09/07 Q1018 TEMPO 4000 -RA BKN008

TAF TAF LFJL
Valide du 07 à 12h jusqu'au 08 à 12h UTC


071100Z 0712/0812 24010KT 9999 BKN020
TEMPO 0712/0806 BKN008
PROB30
TEMPO 0718/0724 1500 BR OVC003
TEMPO 0806/0812 21015G30KT



MET'MAP, la Météo Aéronautique d'un coup d'oeil ! - Copyright ORBIFLY Décembre 2007 - Disclaimer

ORBIFLY MET'MAP TEAM :

Programmation & Développement : Alexandra Zaïnal
Sur une idée originale de : Baudouin d'Aumeries
Assistance à la programmation : Marc-Olivier Méhu
Soutien technique & logistique : Manuel Goepfert

Contact : metmap@orbifly.com




SOURCES & CREDITS :

   NOAA